Airport View

Enter AWOS ICAO identifier for current METAR.

ex. KFNL

KGLH 051253Z 03005KT 10SM CLR 21/19 A3004 RMK AO2 SLP179 T02110194

5 Aug 2020 13:58

Frequency: 125.525

Phone: 662-332-0863

Other Area AWOS: KRNV - KLLQ - KGWO - KCKM

TAF KGLH 051120Z 0512/0612 02005KT P6SM SCT060 SCT100